Boryslav — ENLB — position and weather

sailwx.info

Track history (hours):
 
Tides and Currents Weather Stations Pressure Air Temp Water Temp Dewpoint Dewpoint Depression Visibility Wind Speed Wind Dir Waves Ship Positions

Boryslav

Last reported at 2016-Jun-26 15:33 UTC. Time now 2016-Jun-26 22:43 UTC.
Position N 47°35' E 035°02'.

Length 86 m; draft 1.8 m.

Type: Cargo ship. MMSI: 272088700.

Date/timePositionNaut miles runAvg speedWind from/ knotsBaromVisibWave heightAir tempDewpointWater temp
2016-Jun-26 15:33N 47°35' E 035°02'5 4.1
2016-Jun-26 14:26N 47°39' E 035°06'4 4.1
2016-Jun-26 13:33N 47°42' E 035°08'4 3.8
2016-Jun-26 12:33N 47°46' E 035°09'3 2.7
2016-Jun-26 11:33N 47°49' E 035°09'0 0.0
2016-Jun-26 10:33N 47°49' E 035°09'0 0.0
2016-Jun-26 09:33N 47°49' E 035°09'0 0.0
2016-Jun-26 08:33N 47°49' E 035°09'0 0.0
2016-Jun-26 07:33N 47°49' E 035°09'0 0.0
2016-Jun-26 06:33N 47°49' E 035°09'0 0.0
2016-Jun-26 05:33N 47°49' E 035°09'0 0.0
2016-Jun-26 04:33N 47°49' E 035°09'0 0.1
2016-Jun-26 03:33N 47°49' E 035°09'4 3.9
2016-Jun-26 02:33N 47°52' E 035°05'0 0.5
2016-Jun-26 01:33N 47°52' E 035°06'3 3.1
2016-Jun-26 00:33N 47°55' E 035°07'4 4.0
2016-Jun-25 23:33N 47°59' E 035°07'4 3.7
2016-Jun-25 22:33N 48°03' E 035°06'  
2016-Jun-23 11:33N 48°03' E 035°06'4 3.9
2016-Jun-23 10:33N 47°60' E 035°08'4 4.2
2016-Jun-23 09:33N 47°55' E 035°07'3 2.5
2016-Jun-23 08:33N 47°53' E 035°06'0 0.0
2016-Jun-23 07:33N 47°53' E 035°06'3 1.7
2016-Jun-23 05:33N 47°50' E 035°07'2 2.2
2016-Jun-23 04:33N 47°48' E 035°09'1 1.0
2016-Jun-23 03:33N 47°47' E 035°10'4 4.1
2016-Jun-23 02:33N 47°43' E 035°09'5 4.6
2016-Jun-23 01:33N 47°39' E 035°07'4 4.2
2016-Jun-23 00:33N 47°36' E 035°02'0 0.0
2016-Jun-22 23:33N 47°36' E 035°02'0 0.0
2016-Jun-22 22:33N 47°36' E 035°02'0 0.0
2016-Jun-22 21:33N 47°36' E 035°02'0 0.0
2016-Jun-22 20:33N 47°36' E 035°02'0 0.0
2016-Jun-22 19:33N 47°36' E 035°02'1 1.4
2016-Jun-22 18:33N 47°35' E 035°02'  
2016-Jun-18 04:30N 47°32' E 034°18'3 3.6
2016-Jun-18 03:32N 47°33' E 034°23'3 3.3
2016-Jun-18 02:32N 47°34' E 034°28'15 3.5
2016-Jun-17 22:24N 47°32' E 034°49'8 3.9
2016-Jun-17 20:18N 47°34' E 035°01'3 3.7
2016-Jun-17 19:33N 47°37' E 035°03'4 3.9
2016-Jun-17 18:33N 47°39' E 035°07'4 4.1
2016-Jun-17 17:34N 47°43' E 035°09'4 3.7
2016-Jun-17 16:33N 47°47' E 035°09'2 0.1
2016-Jun-17 03:33N 47°49' E 035°09'0 0.0
2016-Jun-17 02:33N 47°48' E 035°09'0 0.0
2016-Jun-17 01:33N 47°49' E 035°09'0 0.0
2016-Jun-17 00:33N 47°49' E 035°09'0 0.0
2016-Jun-16 23:33N 47°48' E 035°09'0 0.0
2016-Jun-16 22:33N 47°49' E 035°09'0 0.0
2016-Jun-16 21:33N 47°49' E 035°09'0 0.0
2016-Jun-16 20:33N 47°48' E 035°09'0 0.0
2016-Jun-16 19:33N 47°48' E 035°09'0 0.0
2016-Jun-16 18:33N 47°48' E 035°09'0 0.0
2016-Jun-16 17:33N 47°48' E 035°09'0 0.0
2016-Jun-16 16:33N 47°48' E 035°09'0 0.0
2016-Jun-16 15:33N 47°48' E 035°09'  
Track history (hours):
 
Tides and Currents Weather Stations Pressure Air Temp Water Temp Dewpoint Dewpoint Depression Visibility Wind Speed Wind Dir Waves Ship Positions

Boryslav

Last reported at 2016-Jun-26 15:33 UTC. Time now 2016-Jun-26 22:43 UTC.
Position N 47°35' E 035°02'.

Length 86 m; draft 1.8 m.

Type: Cargo ship. MMSI: 272088700.

Date/timePositionNaut miles runAvg speedWind from/ knotsBaromVisibWave heightAir tempDewpointWater temp
2016-Jun-26 15:33N 47°35' E 035°02'5 4.1
2016-Jun-26 14:26N 47°39' E 035°06'4 4.1
2016-Jun-26 13:33N 47°42' E 035°08'4 3.8
2016-Jun-26 12:33N 47°46' E 035°09'3 2.7
2016-Jun-26 11:33N 47°49' E 035°09'0 0.0
2016-Jun-26 10:33N 47°49' E 035°09'0 0.0
2016-Jun-26 09:33N 47°49' E 035°09'0 0.0
2016-Jun-26 08:33N 47°49' E 035°09'0 0.0
2016-Jun-26 07:33N 47°49' E 035°09'0 0.0
2016-Jun-26 06:33N 47°49' E 035°09'0 0.0
2016-Jun-26 05:33N 47°49' E 035°09'0 0.0
2016-Jun-26 04:33N 47°49' E 035°09'0 0.1
2016-Jun-26 03:33N 47°49' E 035°09'4 3.9
2016-Jun-26 02:33N 47°52' E 035°05'0 0.5
2016-Jun-26 01:33N 47°52' E 035°06'3 3.1
2016-Jun-26 00:33N 47°55' E 035°07'4 4.0
2016-Jun-25 23:33N 47°59' E 035°07'4 3.7
2016-Jun-25 22:33N 48°03' E 035°06'  
2016-Jun-23 11:33N 48°03' E 035°06'4 3.9
2016-Jun-23 10:33N 47°60' E 035°08'4 4.2
2016-Jun-23 09:33N 47°55' E 035°07'3 2.5
2016-Jun-23 08:33N 47°53' E 035°06'0 0.0
2016-Jun-23 07:33N 47°53' E 035°06'3 1.7
2016-Jun-23 05:33N 47°50' E 035°07'2 2.2
2016-Jun-23 04:33N 47°48' E 035°09'1 1.0
2016-Jun-23 03:33N 47°47' E 035°10'4 4.1
2016-Jun-23 02:33N 47°43' E 035°09'5 4.6
2016-Jun-23 01:33N 47°39' E 035°07'4 4.2
2016-Jun-23 00:33N 47°36' E 035°02'0 0.0
2016-Jun-22 23:33N 47°36' E 035°02'0 0.0
2016-Jun-22 22:33N 47°36' E 035°02'0 0.0
2016-Jun-22 21:33N 47°36' E 035°02'0 0.0
2016-Jun-22 20:33N 47°36' E 035°02'0 0.0
2016-Jun-22 19:33N 47°36' E 035°02'1 1.4
2016-Jun-22 18:33N 47°35' E 035°02'  
2016-Jun-18 04:30N 47°32' E 034°18'3 3.6
2016-Jun-18 03:32N 47°33' E 034°23'3 3.3
2016-Jun-18 02:32N 47°34' E 034°28'15 3.5
2016-Jun-17 22:24N 47°32' E 034°49'8 3.9
2016-Jun-17 20:18N 47°34' E 035°01'3 3.7
2016-Jun-17 19:33N 47°37' E 035°03'4 3.9
2016-Jun-17 18:33N 47°39' E 035°07'4 4.1
2016-Jun-17 17:34N 47°43' E 035°09'4 3.7
2016-Jun-17 16:33N 47°47' E 035°09'2 0.1
2016-Jun-17 03:33N 47°49' E 035°09'0 0.0
2016-Jun-17 02:33N 47°48' E 035°09'0 0.0
2016-Jun-17 01:33N 47°49' E 035°09'0 0.0
2016-Jun-17 00:33N 47°49' E 035°09'0 0.0
2016-Jun-16 23:33N 47°48' E 035°09'0 0.0
2016-Jun-16 22:33N 47°49' E 035°09'0 0.0
2016-Jun-16 21:33N 47°49' E 035°09'0 0.0
2016-Jun-16 20:33N 47°48' E 035°09'0 0.0
2016-Jun-16 19:33N 47°48' E 035°09'0 0.0
2016-Jun-16 18:33N 47°48' E 035°09'0 0.0
2016-Jun-16 17:33N 47°48' E 035°09'0 0.0
2016-Jun-16 16:33N 47°48' E 035°09'0 0.0
2016-Jun-16 15:33N 47°48' E 035°09'  

Dump ship's entire track history